Snoqualmie River: Snoqualmie Falls station

back to: Snoqualmie river
Snoqualmie Falls station Summary - (NOAA Hydrograph: SQUW1)
flood stage: 13.43 ft
Latest reading:
Thu05/13 03:30 am 6.63 ft 3660 cfs (steady)
Past 24hr max:
Thu05/13 03:30 am 6.63 ft 3660 cfs
Forecasted crests: (published Wed 05/12/21 02:45 pm)
Thu05/13 11:00 am 6.38 ft 3328 cfs
Fri05/14 11:00 am 6.49 ft 3473 cfs
Sat05/15 11:00 am 6.63 ft 3665 cfs
Sun05/16 11:00 am 6.81 ft 3907 cfs
Mon05/17 11:00 am 7.0 ft 4180 cfs
Wed05/19 11:00 am 7.33 ft 4688 cfs

Snoqualmie Falls station Details

Latest Readings

Last 100 Readings:
Thu05/13 03:30 am 6.63 ft 3660 cfs
Thu05/13 03:15 am 6.63 ft 3660 cfs
Thu05/13 03:00 am 6.61 ft 3632 cfs
Thu05/13 02:45 am 6.59 ft 3605 cfs
Thu05/13 02:30 am 6.58 ft 3592 cfs
Thu05/13 02:15 am 6.56 ft 3565 cfs
Thu05/13 02:00 am 6.53 ft 3525 cfs
Thu05/13 01:45 am 6.54 ft 3538 cfs
Thu05/13 01:30 am 6.5 ft 3485 cfs
Thu05/13 01:15 am 6.48 ft 3458 cfs
Thu05/13 01:00 am 6.47 ft 3445 cfs
Thu05/13 12:45 am 6.45 ft 3418 cfs
Thu05/13 12:30 am 6.43 ft 3392 cfs
Thu05/13 12:15 am 6.41 ft 3366 cfs
Thu05/13 12:00 am 6.41 ft 3366 cfs
Wed05/12 11:45 pm 6.39 ft 3340 cfs
Wed05/12 11:30 pm 6.38 ft 3327 cfs
Wed05/12 11:15 pm 6.37 ft 3314 cfs
Wed05/12 11:00 pm 6.35 ft 3288 cfs
Wed05/12 10:45 pm 6.34 ft 3276 cfs
Wed05/12 10:30 pm 6.33 ft 3263 cfs
Wed05/12 10:15 pm 6.32 ft 3250 cfs
Wed05/12 10:00 pm 6.31 ft 3237 cfs
Wed05/12 09:45 pm 6.3 ft 3225 cfs
Wed05/12 09:30 pm 6.3 ft 3225 cfs
Wed05/12 09:15 pm 6.3 ft 3225 cfs
Wed05/12 09:00 pm 6.3 ft 3225 cfs
Wed05/12 08:45 pm 6.28 ft 3199 cfs
Wed05/12 08:30 pm 6.29 ft 3212 cfs
Wed05/12 08:15 pm 6.27 ft 3186 cfs
Wed05/12 08:00 pm 6.28 ft 3199 cfs
Wed05/12 07:45 pm 6.28 ft 3199 cfs
Wed05/12 07:30 pm 6.29 ft 3212 cfs
Wed05/12 07:15 pm 6.28 ft 3199 cfs
Wed05/12 07:00 pm 6.28 ft 3199 cfs
Wed05/12 06:45 pm 6.29 ft 3212 cfs
Wed05/12 06:30 pm 6.29 ft 3212 cfs
Wed05/12 06:15 pm 6.28 ft 3199 cfs
Wed05/12 06:00 pm 6.29 ft 3212 cfs
Wed05/12 05:45 pm 6.29 ft 3212 cfs
Wed05/12 05:30 pm 6.29 ft 3212 cfs
Wed05/12 05:15 pm 6.29 ft 3212 cfs
Wed05/12 05:00 pm 6.3 ft 3225 cfs
Wed05/12 04:45 pm 6.3 ft 3225 cfs
Wed05/12 04:30 pm 6.31 ft 3237 cfs
Wed05/12 04:15 pm 6.31 ft 3237 cfs
Wed05/12 04:00 pm 6.31 ft 3237 cfs
Wed05/12 03:45 pm 6.31 ft 3237 cfs
Wed05/12 03:30 pm 6.31 ft 3237 cfs
Wed05/12 03:15 pm 6.32 ft 3250 cfs
Wed05/12 03:00 pm 6.31 ft 3237 cfs
Wed05/12 02:45 pm 6.32 ft 3250 cfs
Wed05/12 02:30 pm 6.32 ft 3250 cfs
Wed05/12 02:15 pm 6.32 ft 3250 cfs
Wed05/12 02:00 pm 6.33 ft 3263 cfs
Wed05/12 01:45 pm 6.32 ft 3250 cfs
Wed05/12 01:30 pm 6.33 ft 3263 cfs
Wed05/12 01:15 pm 6.34 ft 3276 cfs
Wed05/12 01:00 pm 6.35 ft 3288 cfs
Wed05/12 12:45 pm 6.33 ft 3263 cfs
Wed05/12 12:30 pm 6.35 ft 3288 cfs
Wed05/12 12:15 pm 6.33 ft 3263 cfs
Wed05/12 12:00 pm 6.34 ft 3276 cfs
Wed05/12 11:45 am 6.34 ft 3276 cfs
Wed05/12 11:30 am 6.33 ft 3263 cfs
Wed05/12 11:15 am 6.33 ft 3263 cfs
Wed05/12 11:00 am 6.31 ft 3237 cfs
Wed05/12 10:45 am 6.32 ft 3250 cfs
Wed05/12 10:30 am 6.32 ft 3250 cfs
Wed05/12 10:15 am 6.32 ft 3250 cfs
Wed05/12 10:00 am 6.3 ft 3225 cfs
Wed05/12 09:45 am 6.3 ft 3225 cfs
Wed05/12 09:30 am 6.3 ft 3225 cfs
Wed05/12 09:15 am 6.29 ft 3212 cfs
Wed05/12 09:00 am 6.3 ft 3225 cfs
Wed05/12 08:45 am 6.31 ft 3237 cfs
Wed05/12 08:30 am 6.29 ft 3212 cfs
Wed05/12 08:15 am 6.29 ft 3212 cfs
Wed05/12 08:00 am 6.29 ft 3212 cfs
Wed05/12 07:45 am 6.28 ft 3199 cfs
Wed05/12 07:30 am 6.3 ft 3225 cfs
Wed05/12 07:15 am 6.27 ft 3186 cfs
Wed05/12 07:00 am 6.27 ft 3186 cfs
Wed05/12 06:45 am 6.27 ft 3186 cfs
Wed05/12 06:30 am 6.25 ft 3161 cfs
Wed05/12 06:15 am 6.25 ft 3161 cfs
Wed05/12 06:00 am 6.24 ft 3149 cfs
Wed05/12 05:45 am 6.23 ft 3136 cfs
Wed05/12 05:30 am 6.24 ft 3149 cfs
Wed05/12 05:15 am 6.22 ft 3124 cfs
Wed05/12 05:00 am 6.22 ft 3124 cfs
Wed05/12 04:45 am 6.22 ft 3124 cfs
Wed05/12 04:30 am 6.2 ft 3099 cfs
Wed05/12 04:15 am 6.18 ft 3074 cfs
Wed05/12 04:00 am 6.18 ft 3074 cfs
Wed05/12 03:45 am 6.18 ft 3074 cfs
Wed05/12 03:30 am 6.16 ft 3049 cfs
Wed05/12 03:15 am 6.15 ft 3037 cfs
Wed05/12 03:00 am 6.14 ft 3025 cfs
Wed05/12 02:45 am 6.12 ft 3000 cfs

Latest Forecasts

Currently Forecasted Readings:
Wed05/12 05:00 pm 6.32 ft 3249 cfs
Wed05/12 11:00 pm 6.34 ft 3272 cfs
Thu05/13 05:00 am 6.37 ft 3319 cfs
Thu05/13 11:00 am 6.38 ft 3328 cfs
Thu05/13 05:00 pm 6.34 ft 3272 cfs
Thu05/13 11:00 pm 6.35 ft 3285 cfs
Fri05/14 05:00 am 6.43 ft 3398 cfs
Fri05/14 11:00 am 6.49 ft 3473 cfs
Fri05/14 05:00 pm 6.48 ft 3455 cfs
Fri05/14 11:00 pm 6.48 ft 3459 cfs
Sat05/15 05:00 am 6.58 ft 3589 cfs
Sat05/15 11:00 am 6.63 ft 3665 cfs
Sat05/15 05:00 pm 6.59 ft 3603 cfs
Sat05/15 11:00 pm 6.58 ft 3597 cfs
Sun05/16 05:00 am 6.72 ft 3785 cfs
Sun05/16 11:00 am 6.81 ft 3907 cfs
Sun05/16 05:00 pm 6.75 ft 3823 cfs
Sun05/16 11:00 pm 6.77 ft 3852 cfs
Mon05/17 05:00 am 6.93 ft 4082 cfs
Mon05/17 11:00 am 7.0 ft 4180 cfs
Mon05/17 05:00 pm 6.9 ft 4041 cfs
Mon05/17 11:00 pm 6.81 ft 3904 cfs
Tue05/18 05:00 am 6.77 ft 3853 cfs
Tue05/18 11:00 am 6.74 ft 3807 cfs
Tue05/18 05:00 pm 6.69 ft 3746 cfs
Tue05/18 11:00 pm 6.83 ft 3934 cfs
Wed05/19 05:00 am 7.18 ft 4458 cfs
Wed05/19 11:00 am 7.33 ft 4688 cfs
Wed05/19 05:00 pm 7.14 ft 4393 cfs
Wed05/19 11:00 pm 6.86 ft 3974 cfs
Thu05/20 05:00 am 6.59 ft 3612 cfs
Thu05/20 11:00 am 6.37 ft 3309 cfs
Thu05/20 05:00 pm 6.15 ft 3041 cfs
Thu05/20 11:00 pm 5.97 ft 2820 cfs
Fri05/21 05:00 am 5.88 ft 2711 cfs
Fri05/21 11:00 am 5.85 ft 2678 cfs
Fri05/21 05:00 pm 5.78 ft 2596 cfs
Fri05/21 11:00 pm 5.72 ft 2531 cfs
Sat05/22 05:00 am 5.74 ft 2559 cfs

Snoqualmie River flood gauge data supplied by the
National Weather Service Northwest River Forecast Center.

Sign up for Floodzilla alerts.